Time,TemperatureF,DewpointF,PressureIn,WindDirection,WindDirectionDegrees,WindSpeedMPH,WindSpeedGustMPH,Humidity,HourlyPrecipIn,Conditions,Clouds,dailyrainin,SoftwareType,DateUTC
2013-03-02 00:10:00,57.1,25.0,30.22,East,86,0.0,3.0,29,0.00,,,0.00,weatherlink.com 1.10,2013-03-02 07:10:00,
2013-03-02 00:25:00,55.3,25.0,30.23,East,86,0.0,1.0,31,0.00,,,0.00,weatherlink.com 1.10,2013-03-02 07:25:00,
2013-03-02 00:41:00,54.4,25.0,30.22,East,86,0.0,0.0,32,0.00,,,0.00,weatherlink.com 1.10,2013-03-02 07:41:00,
2013-03-02 00:56:00,55.1,25.0,30.22,West,266,0.0,0.0,31,0.00,,,0.00,weatherlink.com 1.10,2013-03-02 07:56:00,
2013-03-02 01:11:00,55.0,25.0,30.22,West,270,1.0,2.0,31,0.00,,,0.00,weatherlink.com 1.10,2013-03-02 08:11:00,
2013-03-02 01:26:00,56.2,25.0,30.23,WSW,249,0.0,1.0,30,0.00,,,0.00,weatherlink.com 1.10,2013-03-02 08:26:00,
2013-03-02 01:41:00,56.8,25.0,30.22,WSW,253,0.0,2.0,29,0.00,,,0.00,weatherlink.com 1.10,2013-03-02 08:41:00,
2013-03-02 01:56:00,56.0,25.0,30.22,SW,230,0.0,2.0,30,0.00,,,0.00,weatherlink.com 1.10,2013-03-02 08:56:00,
2013-03-02 02:11:00,55.1,25.0,30.22,SW,229,1.0,2.0,31,0.00,,,0.00,weatherlink.com 1.10,2013-03-02 09:11:00,
2013-03-02 02:26:00,53.2,26.0,30.22,SW,224,1.0,2.0,35,0.00,,,0.00,weatherlink.com 1.10,2013-03-02 09:26:00,
2013-03-02 02:41:00,52.9,26.0,30.22,SSW,198,0.0,3.0,35,0.00,,,0.00,weatherlink.com 1.10,2013-03-02 09:41:00,
2013-03-02 02:56:00,51.2,26.0,30.22,SW,230,1.0,4.0,37,0.00,,,0.00,weatherlink.com 1.10,2013-03-02 09:56:00,
2013-03-02 03:11:00,52.2,26.0,30.22,West,281,1.0,4.0,37,0.00,,,0.00,weatherlink.com 1.10,2013-03-02 10:11:00,
2013-03-02 03:26:00,51.9,26.0,30.21,WSW,240,0.0,2.0,37,0.00,,,0.00,weatherlink.com 1.10,2013-03-02 10:26:00,
2013-03-02 03:41:00,50.0,26.0,30.21,SW,231,0.0,1.0,40,0.00,,,0.00,weatherlink.com 1.10,2013-03-02 10:41:00,
2013-03-02 03:56:00,51.2,26.0,30.22,ESE,107,1.0,2.0,37,0.00,,,0.00,weatherlink.com 1.10,2013-03-02 10:56:00,
2013-03-02 04:11:00,50.2,26.0,30.21,WSW,255,2.0,3.0,39,0.00,,,0.00,weatherlink.com 1.10,2013-03-02 11:11:00,
2013-03-02 04:26:00,51.6,22.0,30.21,WSW,245,2.0,2.0,32,0.00,,,0.00,weatherlink.com 1.10,2013-03-02 11:26:00,
2013-03-02 04:41:00,53.6,23.0,30.22,West,264,0.0,1.0,31,0.00,,,0.00,weatherlink.com 1.10,2013-03-02 11:41:00,
2013-03-02 04:56:00,52.4,25.0,30.21,North,357,0.0,0.0,34,0.00,,,0.00,weatherlink.com 1.10,2013-03-02 11:56:00,
2013-03-02 05:11:00,52.1,25.0,30.22,NW,309,0.0,1.0,35,0.00,,,0.00,weatherlink.com 1.10,2013-03-02 12:11:00,
2013-03-02 05:26:00,48.1,26.0,30.23,NNW,340,0.0,0.0,42,0.00,,,0.00,weatherlink.com 1.10,2013-03-02 12:26:00,
2013-03-02 05:41:00,46.0,25.0,30.23,WNW,300,0.0,1.0,44,0.00,,,0.00,weatherlink.com 1.10,2013-03-02 12:41:00,
2013-03-02 05:56:00,44.5,25.0,30.23,WSW,238,1.0,2.0,47,0.00,,,0.00,weatherlink.com 1.10,2013-03-02 12:56:00,
2013-03-02 06:11:00,45.3,25.0,30.23,WSW,238,0.0,0.0,45,0.00,,,0.00,weatherlink.com 1.10,2013-03-02 13:11:00,
2013-03-02 06:26:00,44.7,25.0,30.24,WSW,238,0.0,0.0,46,0.00,,,0.00,weatherlink.com 1.10,2013-03-02 13:26:00,
2013-03-02 06:41:00,45.2,25.0,30.24,West,266,0.0,0.0,45,0.00,,,0.00,weatherlink.com 1.10,2013-03-02 13:41:00,
2013-03-02 06:56:00,45.0,25.0,30.25,WSW,242,1.0,2.0,45,0.00,,,0.00,weatherlink.com 1.10,2013-03-02 13:56:00,
2013-03-02 07:11:00,47.7,24.0,30.25,SSW,201,0.0,2.0,40,0.00,,,0.00,weatherlink.com 1.10,2013-03-02 14:11:00,
2013-03-02 07:26:00,50.0,23.0,30.25,SSW,204,0.0,2.0,35,0.00,,,0.00,weatherlink.com 1.10,2013-03-02 14:26:00,
2013-03-02 07:41:00,51.0,23.0,30.25,SSW,195,1.0,4.0,34,0.00,,,0.00,weatherlink.com 1.10,2013-03-02 14:41:00,
2013-03-02 07:56:00,51.8,23.0,30.25,SW,214,6.0,8.0,32,0.00,,,0.00,weatherlink.com 1.10,2013-03-02 14:56:00,
2013-03-02 08:11:00,53.7,22.0,30.24,South,190,3.0,9.0,29,0.00,,,0.00,weatherlink.com 1.10,2013-03-02 15:11:00,
2013-03-02 08:26:00,57.0,21.0,30.24,SSE,153,6.0,10.0,25,0.00,,,0.00,weatherlink.com 1.10,2013-03-02 15:26:00,
2013-03-02 08:41:00,58.9,23.0,30.24,ESE,115,10.0,12.0,25,0.00,,,0.00,weatherlink.com 1.10,2013-03-02 15:41:00,
2013-03-02 08:56:00,58.6,22.0,30.24,SE,131,8.0,10.0,24,0.00,,,0.00,weatherlink.com 1.10,2013-03-02 15:56:00,
2013-03-02 09:11:00,60.8,23.0,30.24,ESE,117,4.0,10.0,23,0.00,,,0.00,weatherlink.com 1.10,2013-03-02 16:11:00,
2013-03-02 09:26:00,62.2,23.0,30.24,ESE,110,4.0,9.0,22,0.00,,,0.00,weatherlink.com 1.10,2013-03-02 16:26:00,
2013-03-02 09:41:00,62.8,22.0,30.23,SE,143,4.0,11.0,21,0.00,,,0.00,weatherlink.com 1.10,2013-03-02 16:41:00,
2013-03-02 09:57:00,64.2,23.0,30.23,ESE,113,5.0,12.0,21,0.00,,,0.00,weatherlink.com 1.10,2013-03-02 16:57:00,
2013-03-02 10:12:00,65.4,23.0,30.23,ESE,105,9.0,13.0,20,0.00,,,0.00,weatherlink.com 1.10,2013-03-02 17:12:00,
2013-03-02 10:27:00,66.4,23.0,30.23,ESE,117,6.0,10.0,19,0.00,,,0.00,weatherlink.com 1.10,2013-03-02 17:27:00,
2013-03-02 10:42:00,68.4,23.0,30.22,SE,137,4.0,9.0,18,0.00,,,0.00,weatherlink.com 1.10,2013-03-02 17:42:00,
2013-03-02 10:57:00,70.4,23.0,30.21,East,94,0.0,5.0,17,0.00,,,0.00,weatherlink.com 1.10,2013-03-02 17:57:00,
2013-03-02 11:12:00,71.9,25.0,30.21,ESE,107,1.0,5.0,17,0.00,,,0.00,weatherlink.com 1.10,2013-03-02 18:12:00,
2013-03-02 11:27:00,73.6,26.0,30.21,East,89,0.0,3.0,17,0.00,,,0.00,weatherlink.com 1.10,2013-03-02 18:27:00,
2013-03-02 11:42:00,74.4,25.0,30.20,East,85,1.0,3.0,16,0.00,,,0.00,weatherlink.com 1.10,2013-03-02 18:42:00,
2013-03-02 11:57:00,75.5,25.0,30.19,ESE,120,0.0,4.0,15,0.00,,,0.00,weatherlink.com 1.10,2013-03-02 18:57:00,
2013-03-02 12:12:00,76.8,27.0,30.18,ESE,103,0.0,4.0,16,0.00,,,0.00,weatherlink.com 1.10,2013-03-02 19:12:00,
2013-03-02 12:27:00,77.5,26.0,30.17,SSE,158,0.0,4.0,15,0.00,,,0.00,weatherlink.com 1.10,2013-03-02 19:27:00,
2013-03-02 12:42:00,77.3,24.0,30.17,SE,131,0.0,5.0,14,0.00,,,0.00,weatherlink.com 1.10,2013-03-02 19:42:00,
2013-03-02 12:57:00,79.3,22.0,30.16,SE,129,3.0,5.0,12,0.00,,,0.00,weatherlink.com 1.10,2013-03-02 19:57:00,
2013-03-02 13:12:00,78.1,21.0,30.14,SSE,149,1.0,7.0,12,0.00,,,0.00,weatherlink.com 1.10,2013-03-02 20:12:00,
2013-03-02 13:27:00,78.7,22.0,30.13,WNW,295,0.0,5.0,12,0.00,,,0.00,weatherlink.com 1.10,2013-03-02 20:27:00,
2013-03-02 13:42:00,79.0,20.0,30.12,East,97,2.0,5.0,11,0.00,,,0.00,weatherlink.com 1.10,2013-03-02 20:42:00,
2013-03-02 13:57:00,79.6,21.0,30.12,SE,138,0.0,5.0,11,0.00,,,0.00,weatherlink.com 1.10,2013-03-02 20:57:00,
2013-03-02 14:12:00,80.3,21.0,30.11,South,169,3.0,6.0,11,0.00,,,0.00,weatherlink.com 1.10,2013-03-02 21:12:00,
2013-03-02 14:28:00,80.7,19.0,30.11,ESE,116,0.0,4.0,10,0.00,,,0.00,weatherlink.com 1.10,2013-03-02 21:28:00,
2013-03-02 14:43:00,82.9,21.0,30.09,North,9,1.0,4.0,10,0.00,,,0.00,weatherlink.com 1.10,2013-03-02 21:43:00,
2013-03-02 14:58:00,83.2,19.0,30.09,South,174,1.0,2.0,9,0.00,,,0.00,weatherlink.com 1.10,2013-03-02 21:58:00,
2013-03-02 15:13:00,83.2,19.0,30.09,NNE,27,2.0,3.0,9,0.00,,,0.00,weatherlink.com 1.10,2013-03-02 22:13:00,
2013-03-02 15:28:00,84.4,20.0,30.08,East,85,0.0,2.0,9,0.00,,,0.00,weatherlink.com 1.10,2013-03-02 22:28:00,
2013-03-02 15:43:00,84.5,17.0,30.08,WNW,294,2.0,3.0,8,0.00,,,0.00,weatherlink.com 1.10,2013-03-02 22:43:00,
2013-03-02 15:58:00,84.5,20.0,30.07,South,186,0.0,2.0,9,0.00,,,0.00,weatherlink.com 1.10,2013-03-02 22:58:00,
2013-03-02 16:13:00,83.5,19.0,30.07,SW,229,1.0,3.0,9,0.00,,,0.00,weatherlink.com 1.10,2013-03-02 23:13:00,
2013-03-02 16:28:00,83.7,19.0,30.06,South,176,0.0,6.0,9,0.00,,,0.00,weatherlink.com 1.10,2013-03-02 23:28:00,
2013-03-02 16:43:00,82.1,20.0,30.06,NW,312,0.0,4.0,10,0.00,,,0.00,weatherlink.com 1.10,2013-03-02 23:43:00,
2013-03-02 16:58:00,82.1,23.0,30.06,South,176,1.0,5.0,11,0.00,,,0.00,weatherlink.com 1.10,2013-03-02 23:58:00,
2013-03-02 17:13:00,80.3,23.0,30.05,West,269,3.0,4.0,12,0.00,,,0.00,weatherlink.com 1.10,2013-03-03 00:13:00,
2013-03-02 17:28:00,80.0,25.0,30.05,West,276,0.0,3.0,13,0.00,,,0.00,weatherlink.com 1.10,2013-03-03 00:28:00,
2013-03-02 17:43:00,78.7,24.0,30.05,WNW,301,1.0,3.0,13,0.00,,,0.00,weatherlink.com 1.10,2013-03-03 00:43:00,
2013-03-02 17:58:00,75.5,25.0,30.05,WNW,295,1.0,2.0,15,0.00,,,0.00,weatherlink.com 1.10,2013-03-03 00:58:00,
2013-03-02 18:13:00,73.9,23.0,30.05,WNW,285,0.0,2.0,15,0.00,,,0.00,weatherlink.com 1.10,2013-03-03 01:13:00,
2013-03-02 18:28:00,73.0,23.0,30.05,West,280,0.0,2.0,15,0.00,,,0.00,weatherlink.com 1.10,2013-03-03 01:28:00,
2013-03-02 18:43:00,72.3,22.0,30.05,WNW,285,0.0,2.0,15,0.00,,,0.00,weatherlink.com 1.10,2013-03-03 01:43:00,
2013-03-02 18:58:00,71.1,21.0,30.05,WNW,284,3.0,3.0,15,0.00,,,0.00,weatherlink.com 1.10,2013-03-03 01:58:00,
2013-03-02 19:13:00,71.1,21.0,30.06,West,270,0.0,2.0,15,0.00,,,0.00,weatherlink.com 1.10,2013-03-03 02:13:00,
2013-03-02 19:28:00,71.3,21.0,30.06,WNW,283,0.0,6.0,15,0.00,,,0.00,weatherlink.com 1.10,2013-03-03 02:28:00,
2013-03-02 19:43:00,70.9,22.0,30.06,WNW,291,1.0,6.0,16,0.00,,,0.00,weatherlink.com 1.10,2013-03-03 02:43:00,
2013-03-02 19:58:00,70.2,23.0,30.06,West,275,0.0,2.0,17,0.00,,,0.00,weatherlink.com 1.10,2013-03-03 02:58:00,
2013-03-02 20:13:00,69.5,24.0,30.06,SW,236,0.0,4.0,18,0.00,,,0.00,weatherlink.com 1.10,2013-03-03 03:13:00,
2013-03-02 20:28:00,69.4,25.0,30.06,NW,310,2.0,5.0,19,0.00,,,0.00,weatherlink.com 1.10,2013-03-03 03:28:00,
2013-03-02 20:43:00,69.0,25.0,30.07,WSW,257,1.0,4.0,19,0.00,,,0.00,weatherlink.com 1.10,2013-03-03 03:43:00,
2013-03-02 20:58:00,68.1,27.0,30.07,West,267,2.0,3.0,21,0.00,,,0.00,weatherlink.com 1.10,2013-03-03 03:58:00,
2013-03-02 21:13:00,68.4,26.0,30.07,NW,313,0.0,5.0,20,0.00,,,0.00,weatherlink.com 1.10,2013-03-03 04:13:00,
2013-03-02 21:28:00,68.3,27.0,30.07,WNW,283,0.0,4.0,21,0.00,,,0.00,weatherlink.com 1.10,2013-03-03 04:28:00,
2013-03-02 21:43:00,68.1,27.0,30.07,NW,304,0.0,4.0,21,0.00,,,0.00,weatherlink.com 1.10,2013-03-03 04:43:00,
2013-03-02 21:58:00,67.9,26.0,30.07,WNW,294,1.0,3.0,21,0.00,,,0.00,weatherlink.com 1.10,2013-03-03 04:58:00,
2013-03-02 22:13:00,67.2,26.0,30.07,WNW,297,0.0,3.0,21,0.00,,,0.00,weatherlink.com 1.10,2013-03-03 05:13:00,
2013-03-02 22:28:00,66.5,26.0,30.07,NW,304,0.0,1.0,22,0.00,,,0.00,weatherlink.com 1.10,2013-03-03 05:28:00,
2013-03-02 22:43:00,66.2,26.0,30.06,WNW,300,0.0,2.0,22,0.00,,,0.00,weatherlink.com 1.10,2013-03-03 05:43:00,
2013-03-02 22:58:00,66.1,26.0,30.06,WNW,291,0.0,1.0,22,0.00,,,0.00,weatherlink.com 1.10,2013-03-03 05:58:00,
2013-03-02 23:13:00,65.1,25.0,30.06,West,278,0.0,1.0,22,0.00,,,0.00,weatherlink.com 1.10,2013-03-03 06:13:00,
2013-03-02 23:28:00,64.9,26.0,30.05,East,83,2.0,2.0,23,0.00,,,0.00,weatherlink.com 1.10,2013-03-03 06:28:00,
2013-03-02 23:43:00,59.7,27.0,30.05,East,79,0.0,1.0,29,0.00,,,0.00,weatherlink.com 1.10,2013-03-03 06:43:00,
2013-03-02 23:58:00,60.2,27.0,30.05,WSW,240,0.0,2.0,28,0.00,,,0.00,weatherlink.com 1.10,2013-03-03 06:58:00,